Pagrindinis puslapis
METAR-TAF:

METAR-TAF

Oro uostai :

Elim, Aliaska, Jungtinės Amerikos Valstijos

platuma: 64-36-54N, ilguma: 162-16-14W, Aukštis: 49 m

Dabartinis oras

Ataskaita buvo paskelbta 43 minutes, ne 17:56 UTC
Vėjas 6 kt iš Šiaurės
Temperatūra -17°C
Drėgmė 77%
Slėgis 1010 hPa
Matomumas: 8.0 km
Su prošvaistėmis ne aukštis 2900 ft
Apsiniaukę ne aukštis 3500 ft
sniegas

METAR: PFEL 161756Z AUTO 35006KT 5SM -SN BKN029 OVC035 M17/M20 A2982 RMK AO2 SLP102 P0000 60000 T11671200 11167 21183 56000 FZRANO

Laikas: 09:39 (18:39 UTC)


TAF: trūkstamas

Orai ataskaitas ir orų prognozės (METAR, TAF).

turimą stotys yra geltonos ir raudonos taškus žemėlapyje.

Perkelti pele per norėdami pamatyti stoties vardą.

Tada spustelėkite, norėdami matyti oro stebėjimo ir prognozės.

Norėdami pakeisti žemėlapį: spustelėkite ant žalios mygtukų su juodo kryžiaus žemyn,; žalią mygtuką su brūkšneliu, jei norite nutolinti; arba žalių rodyklių gretimoms žemėlapius.


METAR-TAF: